sensor_id;sensor_type;location;lat;lon;timestamp;P1;durP1;ratioP1;P2;durP2;ratioP2
43606;SDS011;29197;44.788;10.366;2023-05-09T00:01:33;7.53;;;6.53;;
43606;SDS011;29197;44.788;10.366;2023-05-09T00:04:22;8.02;;;6.57;;
43606;SDS011;29197;44.788;10.366;2023-05-09T00:07:11;7.75;;;6.78;;
43606;SDS011;29197;44.788;10.366;2023-05-09T00:09:59;8.70;;;7.30;;
43606;SDS011;29197;44.788;10.366;2023-05-09T00:12:50;7.07;;;6.30;;
43606;SDS011;29197;44.788;10.366;2023-05-09T00:15:38;7.35;;;6.60;;
43606;SDS011;29197;44.788;10.366;2023-05-09T00:18:27;8.05;;;7.25;;
43606;SDS011;29197;44.788;10.366;2023-05-09T00:21:19;7.10;;;6.40;;
43606;SDS011;29197;44.788;10.366;2023-05-09T00:24:08;7.23;;;6.53;;
43606;SDS011;29197;44.788;10.366;2023-05-09T00:26:57;7.43;;;6.53;;
43606;SDS011;29197;44.788;10.366;2023-05-09T00:29:47;7.20;;;6.50;;
43606;SDS011;29197;44.788;10.366;2023-05-09T00:32:35;7.37;;;6.57;;
43606;SDS011;29197;44.788;10.366;2023-05-09T00:35:26;8.00;;;7.20;;
43606;SDS011;29197;44.788;10.366;2023-05-09T00:38:14;7.70;;;6.90;;
43606;SDS011;29197;44.788;10.366;2023-05-09T00:41:03;14.52;;;9.70;;
43606;SDS011;29197;44.788;10.366;2023-05-09T00:43:52;8.80;;;7.77;;
43606;SDS011;29197;44.788;10.366;2023-05-09T00:46:41;9.20;;;8.07;;
43606;SDS011;29197;44.788;10.366;2023-05-09T00:49:30;10.87;;;9.07;;
43606;SDS011;29197;44.788;10.366;2023-05-09T00:52:19;8.50;;;7.20;;
43606;SDS011;29197;44.788;10.366;2023-05-09T00:55:11;7.63;;;6.68;;
43606;SDS011;29197;44.788;10.366;2023-05-09T00:58:02;7.53;;;6.72;;
43606;SDS011;29197;44.788;10.366;2023-05-09T01:00:50;7.13;;;6.43;;
43606;SDS011;29197;44.788;10.366;2023-05-09T01:03:40;8.00;;;7.13;;
43606;SDS011;29197;44.788;10.366;2023-05-09T01:06:31;7.63;;;6.93;;
43606;SDS011;29197;44.788;10.366;2023-05-09T01:09:28;7.30;;;6.60;;
43606;SDS011;29197;44.788;10.366;2023-05-09T01:12:25;7.20;;;6.50;;
43606;SDS011;29197;44.788;10.366;2023-05-09T01:15:23;7.35;;;6.57;;
43606;SDS011;29197;44.788;10.366;2023-05-09T01:18:18;7.60;;;6.75;;
43606;SDS011;29197;44.788;10.366;2023-05-09T01:21:19;6.93;;;6.22;;
43606;SDS011;29197;44.788;10.366;2023-05-09T01:24:19;6.82;;;6.13;;
43606;SDS011;29197;44.788;10.366;2023-05-09T01:27:21;7.43;;;6.60;;
43606;SDS011;29197;44.788;10.366;2023-05-09T01:30:17;7.57;;;6.78;;
43606;SDS011;29197;44.788;10.366;2023-05-09T01:33:06;8.25;;;6.90;;
43606;SDS011;29197;44.788;10.366;2023-05-09T01:35:57;7.43;;;6.70;;
43606;SDS011;29197;44.788;10.366;2023-05-09T01:38:49;7.15;;;6.45;;
43606;SDS011;29197;44.788;10.366;2023-05-09T01:41:39;7.30;;;6.60;;
43606;SDS011;29197;44.788;10.366;2023-05-09T01:44:28;6.97;;;6.28;;
43606;SDS011;29197;44.788;10.366;2023-05-09T01:47:22;8.98;;;6.65;;
43606;SDS011;29197;44.788;10.366;2023-05-09T01:50:11;7.47;;;6.75;;
43606;SDS011;29197;44.788;10.366;2023-05-09T01:53:01;7.57;;;6.72;;
43606;SDS011;29197;44.788;10.366;2023-05-09T01:55:52;9.07;;;8.18;;
43606;SDS011;29197;44.788;10.366;2023-05-09T01:58:43;9.23;;;7.07;;
43606;SDS011;29197;44.788;10.366;2023-05-09T02:01:33;11.50;;;10.10;;
43606;SDS011;29197;44.788;10.366;2023-05-09T02:04:25;10.75;;;9.48;;
43606;SDS011;29197;44.788;10.366;2023-05-09T02:07:15;12.95;;;10.45;;
43606;SDS011;29197;44.788;10.366;2023-05-09T02:10:05;12.70;;;11.32;;
43606;SDS011;29197;44.788;10.366;2023-05-09T02:12:55;14.07;;;11.38;;
43606;SDS011;29197;44.788;10.366;2023-05-09T02:15:44;9.35;;;8.45;;
43606;SDS011;29197;44.788;10.366;2023-05-09T02:18:34;8.80;;;7.83;;
43606;SDS011;29197;44.788;10.366;2023-05-09T02:21:24;10.80;;;9.70;;
43606;SDS011;29197;44.788;10.366;2023-05-09T02:24:14;16.93;;;14.63;;
43606;SDS011;29197;44.788;10.366;2023-05-09T02:27:03;11.95;;;10.27;;
43606;SDS011;29197;44.788;10.366;2023-05-09T02:29:54;13.52;;;11.90;;
43606;SDS011;29197;44.788;10.366;2023-05-09T02:32:45;11.07;;;9.55;;
43606;SDS011;29197;44.788;10.366;2023-05-09T02:35:35;12.35;;;9.95;;
43606;SDS011;29197;44.788;10.366;2023-05-09T02:38:25;11.18;;;10.00;;
43606;SDS011;29197;44.788;10.366;2023-05-09T02:41:14;10.38;;;9.27;;
43606;SDS011;29197;44.788;10.366;2023-05-09T02:44:04;11.55;;;10.32;;
43606;SDS011;29197;44.788;10.366;2023-05-09T02:46:52;10.70;;;9.35;;
43606;SDS011;29197;44.788;10.366;2023-05-09T02:49:41;10.57;;;9.48;;
43606;SDS011;29197;44.788;10.366;2023-05-09T02:52:30;10.68;;;9.40;;
43606;SDS011;29197;44.788;10.366;2023-05-09T02:55:20;9.93;;;8.93;;
43606;SDS011;29197;44.788;10.366;2023-05-09T02:58:09;9.55;;;8.55;;
43606;SDS011;29197;44.788;10.366;2023-05-09T03:01:00;10.68;;;9.38;;
43606;SDS011;29197;44.788;10.366;2023-05-09T03:03:49;13.75;;;11.40;;
43606;SDS011;29197;44.788;10.366;2023-05-09T03:06:38;10.15;;;9.05;;
43606;SDS011;29197;44.788;10.366;2023-05-09T03:09:27;9.20;;;8.27;;
43606;SDS011;29197;44.788;10.366;2023-05-09T03:12:17;10.35;;;8.90;;
43606;SDS011;29197;44.788;10.366;2023-05-09T03:15:06;10.02;;;8.38;;
43606;SDS011;29197;44.788;10.366;2023-05-09T03:17:55;9.80;;;8.52;;
43606;SDS011;29197;44.788;10.366;2023-05-09T03:20:44;10.10;;;8.70;;
43606;SDS011;29197;44.788;10.366;2023-05-09T03:23:33;9.00;;;8.10;;
43606;SDS011;29197;44.788;10.366;2023-05-09T03:26:22;9.82;;;8.82;;
43606;SDS011;29197;44.788;10.366;2023-05-09T03:29:13;11.70;;;10.07;;
43606;SDS011;29197;44.788;10.366;2023-05-09T03:32:02;11.93;;;10.30;;
43606;SDS011;29197;44.788;10.366;2023-05-09T03:34:51;13.15;;;11.57;;
43606;SDS011;29197;44.788;10.366;2023-05-09T03:37:40;13.23;;;11.40;;
43606;SDS011;29197;44.788;10.366;2023-05-09T03:40:29;10.97;;;9.40;;
43606;SDS011;29197;44.788;10.366;2023-05-09T03:43:18;10.32;;;9.25;;
43606;SDS011;29197;44.788;10.366;2023-05-09T03:46:08;12.50;;;10.68;;
43606;SDS011;29197;44.788;10.366;2023-05-09T03:48:57;12.35;;;10.50;;
43606;SDS011;29197;44.788;10.366;2023-05-09T03:51:46;10.48;;;9.25;;
43606;SDS011;29197;44.788;10.366;2023-05-09T03:54:35;11.23;;;9.98;;
43606;SDS011;29197;44.788;10.366;2023-05-09T03:57:24;9.90;;;8.40;;
43606;SDS011;29197;44.788;10.366;2023-05-09T04:00:13;8.77;;;7.43;;
43606;SDS011;29197;44.788;10.366;2023-05-09T04:03:03;8.43;;;7.18;;
43606;SDS011;29197;44.788;10.366;2023-05-09T04:05:52;7.93;;;7.13;;
43606;SDS011;29197;44.788;10.366;2023-05-09T04:08:41;7.93;;;7.13;;
43606;SDS011;29197;44.788;10.366;2023-05-09T04:11:30;8.77;;;7.88;;
43606;SDS011;29197;44.788;10.366;2023-05-09T04:14:19;8.20;;;7.28;;
43606;SDS011;29197;44.788;10.366;2023-05-09T04:17:07;7.30;;;6.22;;
43606;SDS011;29197;44.788;10.366;2023-05-09T04:19:58;7.07;;;4.82;;
43606;SDS011;29197;44.788;10.366;2023-05-09T04:22:46;7.38;;;4.75;;
43606;SDS011;29197;44.788;10.366;2023-05-09T04:25:35;5.33;;;4.70;;
43606;SDS011;29197;44.788;10.366;2023-05-09T04:28:24;5.30;;;4.68;;
43606;SDS011;29197;44.788;10.366;2023-05-09T04:31:13;5.10;;;4.10;;
43606;SDS011;29197;44.788;10.366;2023-05-09T04:34:03;5.88;;;4.38;;
43606;SDS011;29197;44.788;10.366;2023-05-09T04:36:53;5.40;;;4.82;;
43606;SDS011;29197;44.788;10.366;2023-05-09T04:39:42;4.50;;;4.10;;
43606;SDS011;29197;44.788;10.366;2023-05-09T04:42:31;4.20;;;3.80;;
43606;SDS011;29197;44.788;10.366;2023-05-09T04:45:21;5.55;;;4.72;;
43606;SDS011;29197;44.788;10.366;2023-05-09T04:48:10;6.38;;;4.97;;
43606;SDS011;29197;44.788;10.366;2023-05-09T04:50:59;4.35;;;3.92;;
43606;SDS011;29197;44.788;10.366;2023-05-09T04:53:49;7.60;;;6.15;;
43606;SDS011;29197;44.788;10.366;2023-05-09T04:56:38;5.15;;;4.20;;
43606;SDS011;29197;44.788;10.366;2023-05-09T04:59:27;4.40;;;3.40;;
43606;SDS011;29197;44.788;10.366;2023-05-09T05:02:16;5.60;;;4.47;;
43606;SDS011;29197;44.788;10.366;2023-05-09T05:05:05;5.33;;;4.77;;
43606;SDS011;29197;44.788;10.366;2023-05-09T05:07:58;4.13;;;3.72;;
43606;SDS011;29197;44.788;10.366;2023-05-09T05:10:49;7.23;;;4.47;;
43606;SDS011;29197;44.788;10.366;2023-05-09T05:13:37;6.43;;;5.50;;
43606;SDS011;29197;44.788;10.366;2023-05-09T05:16:26;5.55;;;4.93;;
43606;SDS011;29197;44.788;10.366;2023-05-09T05:19:14;5.03;;;4.53;;
43606;SDS011;29197;44.788;10.366;2023-05-09T05:22:03;4.43;;;4.03;;
43606;SDS011;29197;44.788;10.366;2023-05-09T05:24:52;4.85;;;4.10;;
43606;SDS011;29197;44.788;10.366;2023-05-09T05:27:43;5.43;;;4.93;;
43606;SDS011;29197;44.788;10.366;2023-05-09T05:30:31;6.05;;;5.03;;
43606;SDS011;29197;44.788;10.366;2023-05-09T05:33:20;5.80;;;4.75;;
43606;SDS011;29197;44.788;10.366;2023-05-09T05:36:08;4.93;;;4.38;;
43606;SDS011;29197;44.788;10.366;2023-05-09T05:38:57;5.30;;;4.27;;
43606;SDS011;29197;44.788;10.366;2023-05-09T05:41:46;5.55;;;4.43;;
43606;SDS011;29197;44.788;10.366;2023-05-09T05:44:35;7.70;;;6.05;;
43606;SDS011;29197;44.788;10.366;2023-05-09T05:47:24;6.07;;;4.95;;
43606;SDS011;29197;44.788;10.366;2023-05-09T05:50:15;5.38;;;4.80;;
43606;SDS011;29197;44.788;10.366;2023-05-09T05:53:03;5.47;;;4.72;;
43606;SDS011;29197;44.788;10.366;2023-05-09T05:55:52;5.47;;;4.80;;
43606;SDS011;29197;44.788;10.366;2023-05-09T05:58:40;5.80;;;4.88;;
43606;SDS011;29197;44.788;10.366;2023-05-09T06:01:30;6.20;;;5.10;;
43606;SDS011;29197;44.788;10.366;2023-05-09T06:04:18;6.10;;;5.18;;
43606;SDS011;29197;44.788;10.366;2023-05-09T06:07:08;5.35;;;4.72;;
43606;SDS011;29197;44.788;10.366;2023-05-09T06:09:57;7.38;;;5.80;;
43606;SDS011;29197;44.788;10.366;2023-05-09T06:12:45;13.33;;;7.53;;
43606;SDS011;29197;44.788;10.366;2023-05-09T06:15:34;5.57;;;4.85;;
43606;SDS011;29197;44.788;10.366;2023-05-09T06:18:24;5.95;;;5.13;;
43606;SDS011;29197;44.788;10.366;2023-05-09T06:21:13;6.50;;;5.60;;
43606;SDS011;29197;44.788;10.366;2023-05-09T06:24:02;8.80;;;7.60;;
43606;SDS011;29197;44.788;10.366;2023-05-09T06:26:59;5.90;;;5.28;;
43606;SDS011;29197;44.788;10.366;2023-05-09T06:29:48;8.75;;;6.40;;
43606;SDS011;29197;44.788;10.366;2023-05-09T06:32:38;7.70;;;6.53;;
43606;SDS011;29197;44.788;10.366;2023-05-09T06:35:28;7.97;;;6.72;;
43606;SDS011;29197;44.788;10.366;2023-05-09T06:38:16;5.10;;;4.60;;
43606;SDS011;29197;44.788;10.366;2023-05-09T06:41:05;6.00;;;4.70;;
43606;SDS011;29197;44.788;10.366;2023-05-09T06:43:54;5.57;;;4.60;;
43606;SDS011;29197;44.788;10.366;2023-05-09T06:46:42;6.97;;;6.25;;
43606;SDS011;29197;44.788;10.366;2023-05-09T06:49:31;6.50;;;5.22;;
43606;SDS011;29197;44.788;10.366;2023-05-09T06:52:21;6.55;;;5.20;;
43606;SDS011;29197;44.788;10.366;2023-05-09T06:55:09;6.57;;;4.97;;
43606;SDS011;29197;44.788;10.366;2023-05-09T06:57:58;9.93;;;7.33;;
43606;SDS011;29197;44.788;10.366;2023-05-09T07:00:47;6.57;;;5.95;;
43606;SDS011;29197;44.788;10.366;2023-05-09T07:03:35;7.78;;;5.60;;
43606;SDS011;29197;44.788;10.366;2023-05-09T07:06:24;5.85;;;5.25;;
43606;SDS011;29197;44.788;10.366;2023-05-09T07:09:14;5.78;;;4.80;;
43606;SDS011;29197;44.788;10.366;2023-05-09T07:12:06;5.40;;;4.82;;
43606;SDS011;29197;44.788;10.366;2023-05-09T07:14:54;5.00;;;4.50;;
43606;SDS011;29197;44.788;10.366;2023-05-09T07:17:43;10.17;;;6.77;;
43606;SDS011;29197;44.788;10.366;2023-05-09T07:20:32;5.65;;;5.03;;
43606;SDS011;29197;44.788;10.366;2023-05-09T07:23:20;7.18;;;6.07;;
43606;SDS011;29197;44.788;10.366;2023-05-09T07:26:12;6.60;;;5.50;;
43606;SDS011;29197;44.788;10.366;2023-05-09T07:29:00;7.05;;;6.00;;
43606;SDS011;29197;44.788;10.366;2023-05-09T07:31:49;4.28;;;3.63;;
43606;SDS011;29197;44.788;10.366;2023-05-09T07:34:38;6.88;;;4.90;;
43606;SDS011;29197;44.788;10.366;2023-05-09T07:37:26;9.20;;;7.20;;
43606;SDS011;29197;44.788;10.366;2023-05-09T07:40:15;5.82;;;4.90;;
43606;SDS011;29197;44.788;10.366;2023-05-09T07:43:05;7.80;;;4.45;;
43606;SDS011;29197;44.788;10.366;2023-05-09T07:45:54;6.90;;;4.80;;
43606;SDS011;29197;44.788;10.366;2023-05-09T07:48:43;5.60;;;4.05;;
43606;SDS011;29197;44.788;10.366;2023-05-09T07:51:31;7.45;;;4.30;;
43606;SDS011;29197;44.788;10.366;2023-05-09T07:54:20;5.70;;;4.30;;
43606;SDS011;29197;44.788;10.366;2023-05-09T07:57:09;4.90;;;3.90;;
43606;SDS011;29197;44.788;10.366;2023-05-09T07:59:59;4.57;;;3.80;;
43606;SDS011;29197;44.788;10.366;2023-05-09T08:02:49;5.40;;;4.38;;
43606;SDS011;29197;44.788;10.366;2023-05-09T08:05:38;4.85;;;3.97;;
43606;SDS011;29197;44.788;10.366;2023-05-09T08:08:27;4.45;;;3.83;;
43606;SDS011;29197;44.788;10.366;2023-05-09T08:11:15;4.97;;;4.32;;
43606;SDS011;29197;44.788;10.366;2023-05-09T08:14:04;7.40;;;5.97;;
43606;SDS011;29197;44.788;10.366;2023-05-09T08:16:54;9.10;;;6.82;;
43606;SDS011;29197;44.788;10.366;2023-05-09T08:19:43;5.75;;;5.05;;
43606;SDS011;29197;44.788;10.366;2023-05-09T08:22:32;5.60;;;5.03;;
43606;SDS011;29197;44.788;10.366;2023-05-09T08:25:21;5.60;;;4.80;;
43606;SDS011;29197;44.788;10.366;2023-05-09T08:28:10;7.90;;;6.28;;
43606;SDS011;29197;44.788;10.366;2023-05-09T08:30:58;8.10;;;5.50;;
43606;SDS011;29197;44.788;10.366;2023-05-09T08:33:49;7.18;;;5.10;;
43606;SDS011;29197;44.788;10.366;2023-05-09T08:36:37;10.93;;;8.68;;
43606;SDS011;29197;44.788;10.366;2023-05-09T08:39:26;11.68;;;9.93;;
43606;SDS011;29197;44.788;10.366;2023-05-09T08:42:15;9.30;;;8.20;;
43606;SDS011;29197;44.788;10.366;2023-05-09T08:45:12;8.15;;;6.82;;
43606;SDS011;29197;44.788;10.366;2023-05-09T08:48:01;15.70;;;12.13;;
43606;SDS011;29197;44.788;10.366;2023-05-09T08:50:51;13.20;;;10.57;;
43606;SDS011;29197;44.788;10.366;2023-05-09T08:53:40;8.82;;;7.70;;
43606;SDS011;29197;44.788;10.366;2023-05-09T08:56:31;14.77;;;11.27;;
43606;SDS011;29197;44.788;10.366;2023-05-09T08:59:22;9.63;;;7.47;;
43606;SDS011;29197;44.788;10.366;2023-05-09T09:02:10;15.80;;;11.57;;
43606;SDS011;29197;44.788;10.366;2023-05-09T09:05:00;7.78;;;6.47;;
43606;SDS011;29197;44.788;10.366;2023-05-09T09:07:52;7.13;;;6.07;;
43606;SDS011;29197;44.788;10.366;2023-05-09T09:10:42;12.20;;;10.00;;
43606;SDS011;29197;44.788;10.366;2023-05-09T09:13:33;10.75;;;9.52;;
43606;SDS011;29197;44.788;10.366;2023-05-09T09:16:24;13.15;;;10.20;;
43606;SDS011;29197;44.788;10.366;2023-05-09T09:19:16;6.80;;;6.10;;
43606;SDS011;29197;44.788;10.366;2023-05-09T09:22:05;7.53;;;6.72;;
43606;SDS011;29197;44.788;10.366;2023-05-09T09:24:56;8.07;;;6.68;;
43606;SDS011;29197;44.788;10.366;2023-05-09T09:27:45;9.38;;;8.10;;
43606;SDS011;29197;44.788;10.366;2023-05-09T09:30:34;7.70;;;6.90;;
43606;SDS011;29197;44.788;10.366;2023-05-09T09:33:23;6.70;;;6.00;;
43606;SDS011;29197;44.788;10.366;2023-05-09T09:36:12;9.05;;;7.60;;
43606;SDS011;29197;44.788;10.366;2023-05-09T09:39:01;11.23;;;9.00;;
43606;SDS011;29197;44.788;10.366;2023-05-09T09:41:52;7.07;;;6.38;;
43606;SDS011;29197;44.788;10.366;2023-05-09T09:44:41;7.87;;;6.83;;
43606;SDS011;29197;44.788;10.366;2023-05-09T09:47:30;12.27;;;9.98;;
43606;SDS011;29197;44.788;10.366;2023-05-09T09:50:19;9.70;;;7.80;;
43606;SDS011;29197;44.788;10.366;2023-05-09T09:53:09;7.25;;;6.35;;
43606;SDS011;29197;44.788;10.366;2023-05-09T09:55:58;5.43;;;4.90;;
43606;SDS011;29197;44.788;10.366;2023-05-09T09:58:48;9.35;;;7.75;;
43606;SDS011;29197;44.788;10.366;2023-05-09T10:04:44;6.47;;;5.40;;
43606;SDS011;29197;44.788;10.366;2023-05-09T10:07:33;8.25;;;7.25;;
43606;SDS011;29197;44.788;10.366;2023-05-09T10:10:25;5.95;;;5.35;;
43606;SDS011;29197;44.788;10.366;2023-05-09T10:13:24;6.88;;;6.00;;
43606;SDS011;29197;44.788;10.366;2023-05-09T10:16:15;8.48;;;6.88;;
43606;SDS011;29197;44.788;10.366;2023-05-09T10:19:15;8.50;;;7.47;;
43606;SDS011;29197;44.788;10.366;2023-05-09T10:22:07;7.10;;;5.70;;
43606;SDS011;29197;44.788;10.366;2023-05-09T10:25:00;4.30;;;3.90;;
43606;SDS011;29197;44.788;10.366;2023-05-09T10:27:49;5.00;;;4.50;;
43606;SDS011;29197;44.788;10.366;2023-05-09T10:30:47;5.50;;;5.00;;
43606;SDS011;29197;44.788;10.366;2023-05-09T10:33:46;4.68;;;4.20;;
43606;SDS011;29197;44.788;10.366;2023-05-09T10:36:37;4.22;;;3.67;;
43606;SDS011;29197;44.788;10.366;2023-05-09T10:39:26;5.60;;;5.10;;
43606;SDS011;29197;44.788;10.366;2023-05-09T10:42:15;4.03;;;3.63;;
43606;SDS011;29197;44.788;10.366;2023-05-09T10:45:05;6.90;;;4.68;;
43606;SDS011;29197;44.788;10.366;2023-05-09T10:47:55;5.77;;;5.17;;
43606;SDS011;29197;44.788;10.366;2023-05-09T10:50:46;6.20;;;5.20;;
43606;SDS011;29197;44.788;10.366;2023-05-09T10:53:41;5.07;;;4.30;;
43606;SDS011;29197;44.788;10.366;2023-05-09T10:56:33;4.03;;;3.60;;
43606;SDS011;29197;44.788;10.366;2023-05-09T10:59:32;8.63;;;5.97;;
43606;SDS011;29197;44.788;10.366;2023-05-09T11:02:23;7.63;;;5.18;;
43606;SDS011;29197;44.788;10.366;2023-05-09T11:21:07;6.60;;;4.78;;
43606;SDS011;29197;44.788;10.366;2023-05-09T11:23:56;6.00;;;5.05;;
43606;SDS011;29197;44.788;10.366;2023-05-09T11:26:45;4.13;;;3.72;;
43606;SDS011;29197;44.788;10.366;2023-05-09T11:29:41;6.78;;;5.20;;
43606;SDS011;29197;44.788;10.366;2023-05-09T11:32:31;7.00;;;4.95;;
43606;SDS011;29197;44.788;10.366;2023-05-09T11:35:21;5.20;;;4.30;;
43606;SDS011;29197;44.788;10.366;2023-05-09T11:38:13;5.15;;;4.35;;
43606;SDS011;29197;44.788;10.366;2023-05-09T11:41:08;4.47;;;4.07;;
43606;SDS011;29197;44.788;10.366;2023-05-09T11:43:57;4.47;;;4.07;;
43606;SDS011;29197;44.788;10.366;2023-05-09T11:46:47;5.85;;;4.55;;
43606;SDS011;29197;44.788;10.366;2023-05-09T11:49:37;6.43;;;4.05;;
43606;SDS011;29197;44.788;10.366;2023-05-09T11:52:30;5.82;;;4.30;;
43606;SDS011;29197;44.788;10.366;2023-05-09T11:55:20;4.75;;;4.07;;
43606;SDS011;29197;44.788;10.366;2023-05-09T11:58:11;5.32;;;4.30;;
43606;SDS011;29197;44.788;10.366;2023-05-09T12:01:00;5.57;;;3.88;;
43606;SDS011;29197;44.788;10.366;2023-05-09T12:03:49;4.57;;;3.90;;
43606;SDS011;29197;44.788;10.366;2023-05-09T12:06:38;3.88;;;3.38;;
43606;SDS011;29197;44.788;10.366;2023-05-09T12:09:28;7.95;;;3.95;;
43606;SDS011;29197;44.788;10.366;2023-05-09T12:12:19;5.80;;;4.28;;
43606;SDS011;29197;44.788;10.366;2023-05-09T12:15:08;3.83;;;3.30;;
43606;SDS011;29197;44.788;10.366;2023-05-09T12:17:59;3.28;;;2.97;;
43606;SDS011;29197;44.788;10.366;2023-05-09T12:20:49;4.60;;;3.20;;
43606;SDS011;29197;44.788;10.366;2023-05-09T12:23:38;4.15;;;2.97;;
43606;SDS011;29197;44.788;10.366;2023-05-09T12:26:27;4.22;;;3.50;;
43606;SDS011;29197;44.788;10.366;2023-05-09T12:29:21;4.03;;;3.40;;
43606;SDS011;29197;44.788;10.366;2023-05-09T12:32:11;4.00;;;3.33;;
43606;SDS011;29197;44.788;10.366;2023-05-09T12:35:00;3.17;;;2.88;;
43606;SDS011;29197;44.788;10.366;2023-05-09T12:37:55;5.82;;;4.10;;
43606;SDS011;29197;44.788;10.366;2023-05-09T12:40:46;3.20;;;2.90;;
43606;SDS011;29197;44.788;10.366;2023-05-09T12:43:35;4.30;;;3.25;;
43606;SDS011;29197;44.788;10.366;2023-05-09T12:46:26;3.15;;;2.85;;
43606;SDS011;29197;44.788;10.366;2023-05-09T12:49:18;3.72;;;2.88;;
43606;SDS011;29197;44.788;10.366;2023-05-09T12:52:15;2.83;;;2.60;;
43606;SDS011;29197;44.788;10.366;2023-05-09T12:55:05;3.70;;;3.17;;
43606;SDS011;29197;44.788;10.366;2023-05-09T12:57:58;2.80;;;2.60;;
43606;SDS011;29197;44.788;10.366;2023-05-09T13:00:47;3.10;;;2.78;;
43606;SDS011;29197;44.788;10.366;2023-05-09T13:03:37;5.07;;;4.00;;
43606;SDS011;29197;44.788;10.366;2023-05-09T13:06:26;4.80;;;3.90;;
43606;SDS011;29197;44.788;10.366;2023-05-09T13:09:15;3.97;;;3.50;;
43606;SDS011;29197;44.788;10.366;2023-05-09T13:12:04;4.20;;;3.22;;
43606;SDS011;29197;44.788;10.366;2023-05-09T13:14:55;2.80;;;2.60;;
43606;SDS011;29197;44.788;10.366;2023-05-09T13:17:45;7.28;;;3.20;;
43606;SDS011;29197;44.788;10.366;2023-05-09T13:20:35;3.25;;;2.78;;
43606;SDS011;29197;44.788;10.366;2023-05-09T13:23:24;3.10;;;2.55;;
43606;SDS011;29197;44.788;10.366;2023-05-09T13:26:13;3.45;;;2.30;;
43606;SDS011;29197;44.788;10.366;2023-05-09T13:29:01;4.00;;;3.60;;
43606;SDS011;29197;44.788;10.366;2023-05-09T13:31:50;3.72;;;3.30;;
43606;SDS011;29197;44.788;10.366;2023-05-09T13:34:39;3.60;;;3.22;;
43606;SDS011;29197;44.788;10.366;2023-05-09T13:37:29;3.20;;;2.90;;
43606;SDS011;29197;44.788;10.366;2023-05-09T13:40:17;3.53;;;3.22;;
43606;SDS011;29197;44.788;10.366;2023-05-09T13:43:06;4.20;;;3.20;;
43606;SDS011;29197;44.788;10.366;2023-05-09T13:45:54;3.28;;;2.50;;
43606;SDS011;29197;44.788;10.366;2023-05-09T13:48:43;5.05;;;3.63;;
43606;SDS011;29197;44.788;10.366;2023-05-09T13:51:33;4.97;;;4.38;;
43606;SDS011;29197;44.788;10.366;2023-05-09T13:54:23;4.00;;;2.90;;
43606;SDS011;29197;44.788;10.366;2023-05-09T13:57:12;3.20;;;2.90;;
43606;SDS011;29197;44.788;10.366;2023-05-09T14:00:01;6.50;;;4.07;;
43606;SDS011;29197;44.788;10.366;2023-05-09T14:02:50;4.53;;;4.10;;
43606;SDS011;29197;44.788;10.366;2023-05-09T14:05:39;5.25;;;4.00;;
43606;SDS011;29197;44.788;10.366;2023-05-09T14:08:27;3.47;;;3.17;;
43606;SDS011;29197;44.788;10.366;2023-05-09T14:11:17;4.05;;;3.55;;
43606;SDS011;29197;44.788;10.366;2023-05-09T14:14:06;3.83;;;3.38;;
43606;SDS011;29197;44.788;10.366;2023-05-09T14:16:54;3.03;;;2.75;;
43606;SDS011;29197;44.788;10.366;2023-05-09T14:19:44;4.90;;;3.67;;
43606;SDS011;29197;44.788;10.366;2023-05-09T14:22:33;5.35;;;4.05;;
43606;SDS011;29197;44.788;10.366;2023-05-09T14:25:21;5.00;;;3.63;;
43606;SDS011;29197;44.788;10.366;2023-05-09T14:28:11;3.30;;;3.00;;
43606;SDS011;29197;44.788;10.366;2023-05-09T14:31:00;2.95;;;2.65;;
43606;SDS011;29197;44.788;10.366;2023-05-09T14:33:49;5.00;;;3.72;;
43606;SDS011;29197;44.788;10.366;2023-05-09T14:36:37;3.25;;;2.75;;
43606;SDS011;29197;44.788;10.366;2023-05-09T14:39:25;3.30;;;3.00;;
43606;SDS011;29197;44.788;10.366;2023-05-09T14:42:14;2.92;;;2.42;;
43606;SDS011;29197;44.788;10.366;2023-05-09T14:45:05;3.35;;;3.03;;
43606;SDS011;29197;44.788;10.366;2023-05-09T14:47:56;3.13;;;2.75;;
43606;SDS011;29197;44.788;10.366;2023-05-09T14:50:45;2.78;;;2.30;;
43606;SDS011;29197;44.788;10.366;2023-05-09T14:53:35;2.58;;;2.38;;
43606;SDS011;29197;44.788;10.366;2023-05-09T14:56:27;3.10;;;2.70;;
43606;SDS011;29197;44.788;10.366;2023-05-09T14:59:16;2.08;;;1.95;;
43606;SDS011;29197;44.788;10.366;2023-05-09T15:02:05;4.85;;;3.20;;
43606;SDS011;29197;44.788;10.366;2023-05-09T15:04:54;2.70;;;2.45;;
43606;SDS011;29197;44.788;10.366;2023-05-09T15:07:43;2.40;;;2.17;;
43606;SDS011;29197;44.788;10.366;2023-05-09T15:10:32;3.65;;;2.63;;
43606;SDS011;29197;44.788;10.366;2023-05-09T15:13:20;2.35;;;2.15;;
43606;SDS011;29197;44.788;10.366;2023-05-09T15:16:09;2.28;;;2.08;;
43606;SDS011;29197;44.788;10.366;2023-05-09T15:18:59;2.47;;;2.17;;
43606;SDS011;29197;44.788;10.366;2023-05-09T15:21:51;3.42;;;2.88;;
43606;SDS011;29197;44.788;10.366;2023-05-09T15:24:39;3.33;;;2.80;;
43606;SDS011;29197;44.788;10.366;2023-05-09T15:27:29;3.00;;;2.65;;
43606;SDS011;29197;44.788;10.366;2023-05-09T15:30:18;3.97;;;2.88;;
43606;SDS011;29197;44.788;10.366;2023-05-09T15:33:07;3.57;;;2.93;;
43606;SDS011;29197;44.788;10.366;2023-05-09T15:35:57;2.95;;;2.72;;
43606;SDS011;29197;44.788;10.366;2023-05-09T15:38:47;5.63;;;4.05;;
43606;SDS011;29197;44.788;10.366;2023-05-09T15:41:35;2.38;;;2.17;;
43606;SDS011;29197;44.788;10.366;2023-05-09T15:44:24;2.50;;;2.28;;
43606;SDS011;29197;44.788;10.366;2023-05-09T15:47:13;2.10;;;1.90;;
43606;SDS011;29197;44.788;10.366;2023-05-09T15:50:02;3.10;;;2.80;;
43606;SDS011;29197;44.788;10.366;2023-05-09T15:52:52;2.50;;;2.30;;
43606;SDS011;29197;44.788;10.366;2023-05-09T15:55:41;3.58;;;2.50;;
43606;SDS011;29197;44.788;10.366;2023-05-09T15:58:30;2.97;;;2.63;;
43606;SDS011;29197;44.788;10.366;2023-05-09T16:01:18;3.78;;;3.13;;
43606;SDS011;29197;44.788;10.366;2023-05-09T16:04:07;3.05;;;2.80;;
43606;SDS011;29197;44.788;10.366;2023-05-09T16:06:56;3.50;;;3.20;;
43606;SDS011;29197;44.788;10.366;2023-05-09T16:09:47;4.13;;;3.65;;
43606;SDS011;29197;44.788;10.366;2023-05-09T16:12:36;4.13;;;3.70;;
43606;SDS011;29197;44.788;10.366;2023-05-09T16:15:25;3.78;;;3.47;;
43606;SDS011;29197;44.788;10.366;2023-05-09T16:18:14;3.85;;;3.55;;
43606;SDS011;29197;44.788;10.366;2023-05-09T16:21:02;4.00;;;3.70;;
43606;SDS011;29197;44.788;10.366;2023-05-09T16:23:51;3.95;;;3.65;;
43606;SDS011;29197;44.788;10.366;2023-05-09T16:26:41;4.38;;;3.97;;
43606;SDS011;29197;44.788;10.366;2023-05-09T16:29:30;3.97;;;3.67;;
43606;SDS011;29197;44.788;10.366;2023-05-09T16:32:19;4.72;;;4.20;;
43606;SDS011;29197;44.788;10.366;2023-05-09T16:35:08;4.80;;;4.05;;
43606;SDS011;29197;44.788;10.366;2023-05-09T16:37:57;5.15;;;4.65;;
43606;SDS011;29197;44.788;10.366;2023-05-09T16:40:45;6.10;;;4.10;;
43606;SDS011;29197;44.788;10.366;2023-05-09T16:43:36;4.40;;;4.00;;
43606;SDS011;29197;44.788;10.366;2023-05-09T16:46:26;5.95;;;4.93;;
43606;SDS011;29197;44.788;10.366;2023-05-09T16:49:15;4.85;;;4.35;;
43606;SDS011;29197;44.788;10.366;2023-05-09T16:52:03;4.43;;;4.03;;
43606;SDS011;29197;44.788;10.366;2023-05-09T16:54:52;5.38;;;4.88;;
43606;SDS011;29197;44.788;10.366;2023-05-09T16:57:41;4.65;;;4.25;;
43606;SDS011;29197;44.788;10.366;2023-05-09T17:00:31;8.10;;;6.75;;
43606;SDS011;29197;44.788;10.366;2023-05-09T17:03:19;4.77;;;4.37;;